createdAt,value
2022-11-18T00:00:32.025Z,991.18
2022-11-18T00:06:51.995Z,991.18
2022-11-18T00:13:14.990Z,991.2
2022-11-18T00:19:35.022Z,991.2
2022-11-18T00:25:58.008Z,991.2
2022-11-18T00:32:17.989Z,991.26
2022-11-18T00:38:41.007Z,991.3
2022-11-18T00:45:00.989Z,991.33
2022-11-18T00:51:23.994Z,991.35
2022-11-18T00:57:44.001Z,991.41
2022-11-18T01:04:06.980Z,991.49
2022-11-18T01:10:27.015Z,991.55
2022-11-18T01:16:50.013Z,991.63
2022-11-18T01:23:10.007Z,991.67
2022-11-18T01:29:32.967Z,991.69
2022-11-18T01:35:53.158Z,991.71
2022-11-18T01:42:16.018Z,991.75
2022-11-18T01:48:35.987Z,991.78
2022-11-18T01:54:59.004Z,991.8
2022-11-18T02:01:19.077Z,991.86
2022-11-18T02:07:42.047Z,991.9
2022-11-18T02:14:02.008Z,991.96
2022-11-18T02:20:24.981Z,992.04
2022-11-18T02:26:44.974Z,992.12
2022-11-18T02:33:08.011Z,992.18
2022-11-18T02:39:27.972Z,992.2
2022-11-18T02:45:51.024Z,992.24
2022-11-18T02:52:11.008Z,992.29
2022-11-18T02:58:34.018Z,992.29
2022-11-18T03:04:53.965Z,992.31
2022-11-18T03:11:17.042Z,992.39
2022-11-18T03:17:36.995Z,992.47
2022-11-18T03:24:00.027Z,992.55
2022-11-18T03:30:20.020Z,992.65
2022-11-18T03:36:43.004Z,992.65
2022-11-18T03:43:02.973Z,992.71
2022-11-18T03:49:26.026Z,992.79
2022-11-18T03:55:45.967Z,992.87
2022-11-18T04:02:09.027Z,992.97
2022-11-18T04:08:29.006Z,993.06
2022-11-18T04:14:51.968Z,993.18
2022-11-18T04:21:12.007Z,993.24
2022-11-18T04:27:35.202Z,993.34
2022-11-18T04:44:00.118Z,993.44
2022-11-18T04:50:22.966Z,993.48
2022-11-18T04:56:48.649Z,993.49
2022-11-18T05:03:06.008Z,993.53
2022-11-18T05:09:30.374Z,993.55
2022-11-18T05:15:49.004Z,993.59
2022-11-18T05:22:08.985Z,993.67
2022-11-18T05:28:32.012Z,993.73
2022-11-18T05:34:51.982Z,993.85
2022-11-18T05:41:15.019Z,993.91
2022-11-18T05:47:34.966Z,993.98
2022-11-18T05:53:57.976Z,994.06
2022-11-18T06:00:18.141Z,994.12
2022-11-18T06:06:40.985Z,994.18
2022-11-18T06:13:00.986Z,994.26
2022-11-18T06:19:24.102Z,994.28
2022-11-18T06:25:44.003Z,994.38
2022-11-18T06:32:06.986Z,994.43
2022-11-18T06:38:27.041Z,994.47
2022-11-18T06:44:50.020Z,994.55
2022-11-18T06:51:10.001Z,994.63
2022-11-18T06:57:33.033Z,994.73
2022-11-18T07:03:53.014Z,994.81
2022-11-18T07:10:15.969Z,994.9
2022-11-18T07:16:36.035Z,995.02
2022-11-18T07:22:59.009Z,995.2
2022-11-18T07:29:19.367Z,995.32
2022-11-18T07:35:42.033Z,995.42
2022-11-18T07:42:01.982Z,995.52
2022-11-18T07:48:24.998Z,995.56
2022-11-18T07:54:45.034Z,995.61
2022-11-18T08:01:08.039Z,995.69
2022-11-18T08:07:28.067Z,995.79
2022-11-18T08:13:50.994Z,995.87
2022-11-18T08:20:10.985Z,995.89
2022-11-18T08:26:33.981Z,996.01
2022-11-18T08:32:54.036Z,996.05
2022-11-18T08:39:17.232Z,996.12
2022-11-18T08:45:36.981Z,996.2
2022-11-18T08:52:00.040Z,996.32
2022-11-18T08:58:19.992Z,996.34
2022-11-18T09:04:42.982Z,996.4
2022-11-18T09:11:03.021Z,996.48
2022-11-18T09:17:25.981Z,996.48
2022-11-18T09:23:45.986Z,996.48
2022-11-18T09:30:09.040Z,996.59
2022-11-18T09:36:28.983Z,996.67
2022-11-18T09:59:33.987Z,996.93
2022-11-18T10:05:56.995Z,997
2022-11-18T10:12:16.998Z,997.06
2022-11-18T10:24:59.968Z,997.14
2022-11-18T10:31:23.013Z,997.18
2022-11-18T10:38:06.591Z,997.22
2022-11-18T10:44:10.896Z,997.22
2022-11-18T10:50:25.969Z,997.28
2022-11-18T10:56:52.231Z,997.34
2022-11-18T11:03:08.989Z,997.34
2022-11-18T11:09:31.992Z,997.32
2022-11-18T11:15:52.042Z,997.34
2022-11-18T11:22:14.982Z,997.32
2022-11-18T11:28:34.993Z,997.34
2022-11-18T11:34:58.007Z,997.32
2022-11-18T11:41:17.982Z,997.32
2022-11-18T11:47:40.997Z,997.3
2022-11-18T11:54:01.062Z,997.32
2022-11-18T12:00:23.994Z,997.32
2022-11-18T12:06:44.005Z,997.34
2022-11-18T12:13:07.021Z,997.34
2022-11-18T12:19:26.996Z,997.36
2022-11-18T12:25:49.979Z,997.36
2022-11-18T12:32:10.013Z,997.38
2022-11-18T12:38:33.005Z,997.4
2022-11-18T12:44:52.991Z,997.44
2022-11-18T12:51:16.032Z,997.42
2022-11-18T12:57:35.982Z,997.47
2022-11-18T13:03:59.004Z,997.44
2022-11-18T13:10:19.024Z,997.46
2022-11-18T13:16:41.983Z,997.47
2022-11-18T13:23:02.022Z,997.53
2022-11-18T13:29:25.031Z,997.53
2022-11-18T13:35:44.996Z,997.53
2022-11-18T13:42:07.986Z,997.65
2022-11-18T13:48:28.010Z,997.83
2022-11-18T13:54:51.011Z,997.89
2022-11-18T14:01:11.078Z,997.91
2022-11-18T14:07:34.180Z,997.91
2022-11-18T14:13:53.990Z,997.95
2022-11-18T14:20:17.003Z,997.99
2022-11-18T14:26:37.028Z,998.01
2022-11-18T14:33:00.103Z,998.05
2022-11-18T14:39:26.211Z,998.17
2022-11-18T14:45:43.047Z,998.23
2022-11-18T14:52:03.034Z,998.26
2022-11-18T14:58:25.991Z,998.3
2022-11-18T15:04:46.046Z,998.36
2022-11-18T15:27:34.037Z,998.36
2022-11-18T15:33:58.869Z,998.44
2022-11-18T15:40:16.984Z,998.48
2022-11-18T15:46:40.240Z,998.56
2022-11-18T15:53:00.185Z,998.62
2022-11-18T15:59:22.975Z,998.68
2022-11-18T16:05:43.321Z,998.75
2022-11-18T16:12:06.001Z,998.79
2022-11-18T16:18:25.974Z,998.83
2022-11-18T16:24:53.090Z,998.85
2022-11-18T16:31:08.997Z,998.85
2022-11-18T16:37:31.996Z,998.85
2022-11-18T16:43:52.005Z,998.91
2022-11-18T16:50:14.994Z,998.99
2022-11-18T16:56:35.007Z,999.03
2022-11-18T17:02:58.039Z,999.05
2022-11-18T17:09:18.449Z,999.03
2022-11-18T17:15:40.999Z,999.05
2022-11-18T17:22:01.029Z,999.15
2022-11-18T17:28:24.033Z,999.18
2022-11-18T17:34:44.011Z,999.22
2022-11-18T17:41:07.059Z,999.3
2022-11-18T17:47:26.988Z,999.38
2022-11-18T17:53:50.002Z,999.46
2022-11-18T18:00:09.998Z,999.54
2022-11-18T18:06:32.986Z,999.6
2022-11-18T18:12:52.995Z,999.62
2022-11-18T18:19:16.018Z,999.64
2022-11-18T18:25:35.989Z,999.71
2022-11-18T18:31:59.023Z,999.77
2022-11-18T18:38:19.155Z,999.79
2022-11-18T18:44:41.980Z,999.83
2022-11-18T18:51:02.000Z,999.87
2022-11-18T18:57:25.004Z,999.89
2022-11-18T19:03:44.986Z,999.95
2022-11-18T19:10:07.967Z,1000.01
2022-11-18T19:16:28.013Z,1000.03
2022-11-18T19:22:51.102Z,1000.07
2022-11-18T19:29:10.993Z,1000.09
2022-11-18T19:35:34.047Z,1000.09
2022-11-18T19:41:54.190Z,1000.11
2022-11-18T19:48:17.277Z,1000.12
2022-11-18T19:54:37.026Z,1000.18
2022-11-18T20:00:59.994Z,1000.35
2022-11-18T20:07:20.032Z,1000.35
2022-11-18T20:29:32.999Z,1000.41
2022-11-18T20:35:55.990Z,1000.46
2022-11-18T20:42:15.989Z,1000.54
2022-11-18T20:48:39.003Z,1000.58
2022-11-18T20:55:02.676Z,1000.58
2022-11-18T21:01:22.043Z,1000.62
2022-11-18T21:07:42.019Z,1000.64
2022-11-18T21:14:05.008Z,1000.7
2022-11-18T21:20:24.971Z,1000.76
2022-11-18T21:26:48.037Z,1000.74
2022-11-18T21:33:08.285Z,1000.78
2022-11-18T21:39:30.981Z,1000.82
2022-11-18T21:45:50.998Z,1000.86
2022-11-18T21:52:14.037Z,1000.89
2022-11-18T21:58:33.991Z,1000.89
2022-11-18T22:04:57.003Z,1000.93
2022-11-18T22:11:16.988Z,1000.97
2022-11-18T22:17:39.987Z,1001.03
2022-11-18T22:24:00.288Z,1001.01
2022-11-18T22:30:22.998Z,1000.99
2022-11-18T22:36:42.979Z,1000.99
2022-11-18T22:43:06.014Z,1000.97
2022-11-18T22:49:25.981Z,1000.97
2022-11-18T22:55:48.988Z,1000.97
2022-11-18T23:20:04.003Z,1001.05
2022-11-18T23:26:23.982Z,1001.09
2022-11-18T23:32:46.983Z,1001.13
2022-11-18T23:39:07.018Z,1001.13
2022-11-18T23:45:29.995Z,1001.11
2022-11-18T23:51:49.972Z,1001.11
2022-11-18T23:58:13.059Z,1001.11
